createdAt,value
2019-05-22T00:00:13.174Z,97.77
2019-05-22T00:02:44.645Z,97.59
2019-05-22T00:05:18.958Z,97.77
2019-05-22T00:07:48.919Z,97.96
2019-05-22T00:10:20.618Z,97.63
2019-05-22T00:12:49.603Z,97.74
2019-05-22T00:15:18.728Z,97.84
2019-05-22T00:17:49.083Z,97.79
2019-05-22T00:20:20.231Z,97.93
2019-05-22T00:22:51.169Z,97.95
2019-05-22T00:25:21.153Z,97.66
2019-05-22T00:27:53.354Z,97.68
2019-05-22T00:30:24.822Z,97.58
2019-05-22T00:32:53.289Z,97.38
2019-05-22T00:35:25.263Z,97.43
2019-05-22T00:37:54.383Z,97.61
2019-05-22T00:40:24.420Z,97.66
2019-05-22T00:43:03.452Z,97.79
2019-05-22T00:45:25.281Z,97.69
2019-05-22T00:47:54.533Z,97.75
2019-05-22T00:50:28.872Z,97.81
2019-05-22T00:53:09.571Z,97.88
2019-05-22T00:55:40.394Z,97.83
2019-05-22T00:58:20.942Z,97.79
2019-05-22T01:00:52.609Z,97.31
2019-05-22T01:03:23.295Z,97.57
2019-05-22T01:05:52.068Z,97.54
2019-05-22T01:08:22.059Z,97.72
2019-05-22T01:10:54.830Z,97.77
2019-05-22T01:13:25.496Z,97.84
2019-05-22T01:15:55.920Z,97.77
2019-05-22T01:18:26.087Z,97.82
2019-05-22T01:20:58.348Z,98.02
2019-05-22T01:23:30.223Z,97.84
2019-05-22T01:26:01.124Z,97.99
2019-05-22T01:28:30.111Z,98.02
2019-05-22T01:31:00.587Z,98.10
2019-05-22T01:33:32.238Z,97.89
2019-05-22T01:36:02.949Z,98.01
2019-05-22T01:38:33.436Z,97.96
2019-05-22T01:41:18.508Z,97.87
2019-05-22T01:43:48.840Z,97.99
2019-05-22T01:46:19.360Z,97.96
2019-05-22T01:48:51.000Z,98.02
2019-05-22T01:51:20.733Z,98.14
2019-05-22T01:53:52.293Z,98.11
2019-05-22T01:56:21.612Z,98.15
2019-05-22T01:58:51.193Z,98.18
2019-05-22T02:01:20.877Z,98.24
2019-05-22T02:03:50.913Z,98.33
2019-05-22T02:06:22.116Z,98.25
2019-05-22T02:08:57.052Z,98.39
2019-05-22T02:11:27.269Z,98.33
2019-05-22T02:14:12.348Z,98.40
2019-05-22T02:16:56.283Z,98.53
2019-05-22T02:19:16.489Z,98.53
2019-05-22T02:21:46.023Z,98.55
2019-05-22T02:24:15.964Z,98.61
2019-05-22T02:26:46.159Z,98.64
2019-05-22T02:29:16.726Z,98.67
2019-05-22T02:31:45.212Z,98.67
2019-05-22T02:34:14.978Z,98.68
2019-05-22T02:36:45.285Z,98.74
2019-05-22T02:39:28.746Z,98.79
2019-05-22T02:42:00.269Z,98.78
2019-05-22T02:44:29.745Z,98.77
2019-05-22T02:47:16.578Z,98.72
2019-05-22T02:49:32.748Z,98.75
2019-05-22T02:52:02.062Z,98.81
2019-05-22T02:54:32.745Z,98.89
2019-05-22T02:57:02.554Z,98.94
2019-05-22T02:59:31.544Z,98.95
2019-05-22T03:02:02.132Z,99.04
2019-05-22T03:04:53.446Z,98.95
2019-05-22T03:07:23.838Z,98.92
2019-05-22T03:09:53.222Z,98.87
2019-05-22T03:12:22.471Z,98.77
2019-05-22T03:14:51.904Z,98.80
2019-05-22T03:17:30.688Z,98.73
2019-05-22T03:20:01.354Z,98.76
2019-05-22T03:22:37.385Z,98.71
2019-05-22T03:25:09.511Z,98.77
2019-05-22T03:27:44.015Z,98.42
2019-05-22T03:30:22.588Z,98.51
2019-05-22T03:32:52.061Z,98.56
2019-05-22T03:35:22.573Z,98.54
2019-05-22T03:37:51.625Z,98.52
2019-05-22T03:40:20.637Z,98.57
2019-05-22T03:42:50.843Z,98.40
2019-05-22T03:45:21.235Z,98.44
2019-05-22T03:47:52.263Z,98.44
2019-05-22T03:50:20.885Z,98.50
2019-05-22T03:52:49.282Z,98.49
2019-05-22T03:55:17.816Z,98.25
2019-05-22T03:57:46.555Z,98.18
2019-05-22T04:00:18.780Z,98.15
2019-05-22T04:02:50.789Z,97.89
2019-05-22T04:05:20.823Z,97.95
2019-05-22T04:07:51.158Z,97.69
2019-05-22T04:10:19.864Z,97.89
2019-05-22T04:12:48.446Z,98.12
2019-05-22T04:15:17.936Z,97.83
2019-05-22T04:17:46.644Z,97.98
2019-05-22T04:20:20.204Z,98.04
2019-05-22T04:22:51.202Z,98.03
2019-05-22T04:25:19.575Z,98.08
2019-05-22T04:27:48.393Z,98.21
2019-05-22T04:30:18.612Z,97.96
2019-05-22T04:32:49.098Z,98.02
2019-05-22T04:35:19.379Z,98.02
2019-05-22T04:37:49.645Z,98.12
2019-05-22T04:40:28.383Z,98.19
2019-05-22T04:42:58.968Z,98.27
2019-05-22T04:45:28.446Z,98.33
2019-05-22T04:48:01.139Z,98.38
2019-05-22T04:50:31.217Z,98.35
2019-05-22T04:53:00.497Z,98.32
2019-05-22T04:55:30.700Z,98.27
2019-05-22T04:58:04.855Z,98.26
2019-05-22T05:00:35.194Z,98.22
2019-05-22T05:03:05.718Z,98.01
2019-05-22T05:05:42.237Z,97.92
2019-05-22T05:08:12.117Z,98.14
2019-05-22T05:10:43.842Z,98.25
2019-05-22T05:13:12.416Z,98.33
2019-05-22T05:15:40.817Z,98.41
2019-05-22T05:18:09.702Z,98.44
2019-05-22T05:20:39.108Z,98.41
2019-05-22T05:23:07.937Z,98.44
2019-05-22T05:25:36.593Z,98.52
2019-05-22T05:28:07.258Z,98.55
2019-05-22T05:30:35.653Z,98.57
2019-05-22T05:33:05.470Z,98.61
2019-05-22T05:35:35.170Z,98.54
2019-05-22T05:38:05.518Z,98.54
2019-05-22T05:40:40.203Z,98.54
2019-05-22T05:43:11.621Z,98.44
2019-05-22T05:45:42.286Z,98.39
2019-05-22T05:48:13.747Z,98.47
2019-05-22T05:51:02.209Z,98.58
2019-05-22T05:53:33.533Z,98.59
2019-05-22T05:56:16.452Z,98.48
2019-05-22T05:58:45.461Z,98.20
2019-05-22T06:01:20.360Z,98.16
2019-05-22T06:03:49.624Z,98.27
2019-05-22T06:06:25.953Z,98.32
2019-05-22T06:08:54.916Z,98.40
2019-05-22T06:11:40.928Z,98.31
2019-05-22T06:14:11.745Z,98.31
2019-05-22T06:16:53.831Z,98.29
2019-05-22T06:19:23.724Z,98.31
2019-05-22T06:21:52.458Z,98.03
2019-05-22T06:24:25.586Z,98.12
2019-05-22T06:26:57.596Z,98.08
2019-05-22T06:29:29.295Z,97.88
2019-05-22T06:32:07.838Z,97.97
2019-05-22T06:34:37.730Z,97.90
2019-05-22T06:37:44.514Z,97.80
2019-05-22T06:40:13.788Z,97.45
2019-05-22T06:42:44.975Z,97.60
2019-05-22T06:45:13.441Z,97.52
2019-05-22T06:47:41.831Z,97.65
2019-05-22T06:50:11.039Z,97.48
2019-05-22T06:52:39.763Z,97.53
2019-05-22T06:55:09.009Z,97.35
2019-05-22T06:57:37.669Z,97.15
2019-05-22T07:00:14.231Z,97.11
2019-05-22T07:02:39.687Z,97.07
2019-05-22T07:05:09.196Z,96.90
2019-05-22T07:07:37.839Z,96.70
2019-05-22T07:10:08.235Z,96.48
2019-05-22T07:12:37.058Z,96.32
2019-05-22T07:15:10.435Z,96.08
2019-05-22T07:17:39.674Z,96.00
2019-05-22T07:20:08.901Z,96.14
2019-05-22T07:22:37.531Z,96.17
2019-05-22T07:25:09.693Z,96.13
2019-05-22T07:27:38.789Z,96.06
2019-05-22T07:30:09.727Z,96.11
2019-05-22T07:32:39.030Z,95.96
2019-05-22T07:35:08.637Z,95.94
2019-05-22T07:37:45.418Z,95.84
2019-05-22T07:40:14.432Z,95.19
2019-05-22T07:42:42.827Z,95.72
2019-05-22T07:45:11.951Z,95.49
2019-05-22T07:47:42.617Z,95.66
2019-05-22T07:50:12.921Z,95.13
2019-05-22T07:52:41.483Z,95.34
2019-05-22T07:55:10.342Z,95.32
2019-05-22T07:57:41.058Z,95.67
2019-05-22T08:00:10.603Z,95.83
2019-05-22T08:02:42.047Z,96.22
2019-05-22T08:05:12.813Z,96.02
2019-05-22T08:07:41.619Z,95.98
2019-05-22T08:10:13.915Z,95.60
2019-05-22T08:12:43.946Z,95.50
2019-05-22T08:15:13.156Z,95.25
2019-05-22T08:17:42.625Z,95.20
2019-05-22T08:20:11.846Z,94.69
2019-05-22T08:22:40.674Z,94.51
2019-05-22T08:25:09.933Z,94.31
2019-05-22T08:27:39.821Z,93.98
2019-05-22T08:30:09.109Z,94.26
2019-05-22T08:32:38.642Z,93.93
2019-05-22T08:35:09.038Z,93.12
2019-05-22T08:37:39.642Z,92.19
2019-05-22T08:40:11.663Z,92.88
2019-05-22T08:42:41.367Z,91.77
2019-05-22T08:45:11.592Z,91.86
2019-05-22T08:47:40.579Z,91.90
2019-05-22T08:50:12.279Z,91.85
2019-05-22T08:52:44.796Z,91.52
2019-05-22T08:55:14.424Z,91.25
2019-05-22T08:57:43.527Z,90.52
2019-05-22T09:00:19.275Z,89.18
2019-05-22T09:02:48.232Z,90.28
2019-05-22T09:05:20.956Z,90.45
2019-05-22T09:07:47.527Z,90.89
2019-05-22T09:10:16.254Z,90.02
2019-05-22T09:12:44.638Z,89.75
2019-05-22T09:15:13.712Z,89.60
2019-05-22T09:17:42.370Z,89.96
2019-05-22T09:20:11.946Z,88.90
2019-05-22T09:22:41.599Z,89.41
2019-05-22T09:25:13.827Z,87.69
2019-05-22T09:27:43.109Z,87.96
2019-05-22T09:30:13.090Z,89.08
2019-05-22T09:32:41.734Z,88.86
2019-05-22T09:35:11.767Z,87.71
2019-05-22T09:37:40.536Z,86.43
2019-05-22T09:40:09.252Z,84.75
2019-05-22T09:42:38.312Z,85.69
2019-05-22T09:45:08.501Z,84.61
2019-05-22T09:47:38.714Z,85.93
2019-05-22T09:50:11.062Z,85.78
2019-05-22T09:52:56.226Z,85.79
2019-05-22T09:55:13.042Z,84.02
2019-05-22T09:57:43.177Z,84.35
2019-05-22T10:00:12.957Z,85.94
2019-05-22T10:02:41.993Z,86.55
2019-05-22T10:05:11.632Z,84.91
2019-05-22T10:07:57.753Z,86.04
2019-05-22T10:10:14.011Z,84.97
2019-05-22T10:12:42.754Z,83.96
2019-05-22T10:15:13.150Z,83.50
2019-05-22T10:17:47.334Z,84.71
2019-05-22T10:20:17.319Z,84.30
2019-05-22T10:22:46.285Z,84.60
2019-05-22T10:25:17.194Z,84.35
2019-05-22T10:27:47.117Z,82.34
2019-05-22T10:30:19.185Z,83.93
2019-05-22T10:32:48.021Z,83.85
2019-05-22T10:35:17.398Z,85.21
2019-05-22T10:37:46.135Z,83.26
2019-05-22T10:40:15.652Z,83.02
2019-05-22T10:42:45.430Z,84.95
2019-05-22T10:45:14.146Z,82.02
2019-05-22T10:47:44.054Z,83.64
2019-05-22T10:50:13.869Z,82.23
2019-05-22T10:52:42.835Z,83.90
2019-05-22T10:55:12.924Z,81.41
2019-05-22T10:57:42.921Z,81.34
2019-05-22T11:00:14.936Z,80.85
2019-05-22T11:02:43.746Z,78.34
2019-05-22T11:05:13.079Z,78.67
2019-05-22T11:07:41.628Z,77.79
2019-05-22T11:10:10.859Z,78.96
2019-05-22T11:12:39.878Z,77.84
2019-05-22T11:15:09.424Z,79.60
2019-05-22T11:17:39.294Z,77.09
2019-05-22T11:20:09.979Z,78.65
2019-05-22T11:22:38.825Z,78.60
2019-05-22T11:25:08.737Z,78.63
2019-05-22T11:27:37.726Z,78.89
2019-05-22T11:30:11.254Z,79.78
2019-05-22T11:32:40.222Z,80.20
2019-05-22T11:35:10.251Z,80.47
2019-05-22T11:37:39.360Z,78.36
2019-05-22T11:40:08.867Z,78.58
2019-05-22T11:42:39.215Z,78.90
2019-05-22T11:45:11.198Z,80.18
2019-05-22T11:47:41.017Z,78.36
2019-05-22T11:50:11.906Z,79.00
2019-05-22T11:52:42.108Z,78.10
2019-05-22T11:55:12.519Z,79.39
2019-05-22T11:57:43.231Z,78.02
2019-05-22T12:00:12.985Z,76.72
2019-05-22T12:02:41.538Z,79.17
2019-05-22T12:05:10.487Z,79.58
2019-05-22T12:07:43.732Z,79.92
2019-05-22T12:10:14.792Z,76.69
2019-05-22T12:12:44.809Z,78.96
2019-05-22T12:15:15.156Z,80.00
2019-05-22T12:17:44.880Z,79.98
2019-05-22T12:20:15.181Z,81.68
2019-05-22T12:22:43.628Z,81.49
2019-05-22T12:25:14.871Z,81.57
2019-05-22T12:27:43.892Z,80.67
2019-05-22T12:30:13.735Z,79.26
2019-05-22T12:32:42.368Z,79.33
2019-05-22T12:35:13.743Z,78.32
2019-05-22T12:37:42.953Z,78.05
2019-05-22T12:40:14.209Z,76.60
2019-05-22T12:42:42.599Z,75.32
2019-05-22T12:45:12.817Z,75.41
2019-05-22T12:47:43.277Z,76.43
2019-05-22T12:50:15.688Z,76.47
2019-05-22T12:52:47.124Z,75.58
2019-05-22T12:55:17.209Z,73.24
2019-05-22T12:57:46.052Z,74.74
2019-05-22T13:00:15.645Z,72.49
2019-05-22T13:02:44.581Z,74.49
2019-05-22T13:05:14.529Z,71.66
2019-05-22T13:07:43.304Z,72.08
2019-05-22T13:10:12.144Z,71.33
2019-05-22T13:12:40.545Z,71.98
2019-05-22T13:15:11.014Z,71.77
2019-05-22T13:17:40.884Z,72.67
2019-05-22T13:20:12.266Z,69.77
2019-05-22T13:22:43.991Z,68.84
2019-05-22T13:25:15.449Z,69.42
2019-05-22T13:27:45.808Z,66.42
2019-05-22T13:30:17.142Z,68.10
2019-05-22T13:32:46.258Z,67.69
2019-05-22T13:35:17.670Z,69.08
2019-05-22T13:37:46.354Z,68.02
2019-05-22T13:40:27.026Z,68.29
2019-05-22T13:42:45.757Z,68.34
2019-05-22T13:45:28.688Z,69.72
2019-05-22T13:47:46.112Z,69.26
2019-05-22T13:50:17.387Z,69.55
2019-05-22T13:52:46.637Z,67.82
2019-05-22T13:55:15.770Z,67.53
2019-05-22T13:57:44.584Z,65.33
2019-05-22T14:00:16.529Z,63.37
2019-05-22T14:02:44.923Z,64.43
2019-05-22T14:05:14.115Z,64.09
2019-05-22T14:07:42.686Z,64.93
2019-05-22T14:10:11.652Z,64.15
2019-05-22T14:12:40.104Z,61.82
2019-05-22T14:15:09.239Z,62.67
2019-05-22T14:17:37.785Z,64.19
2019-05-22T14:20:09.528Z,64.17
2019-05-22T14:22:38.443Z,63.45
2019-05-22T14:25:08.682Z,63.20
2019-05-22T14:27:41.452Z,62.98
2019-05-22T14:30:09.431Z,60.40
2019-05-22T14:32:38.163Z,61.33
2019-05-22T14:35:07.162Z,61.25
2019-05-22T14:37:35.618Z,61.60
2019-05-22T14:40:07.277Z,62.68
2019-05-22T14:42:35.641Z,61.22
2019-05-22T14:45:05.930Z,61.38
2019-05-22T14:47:34.319Z,61.92
2019-05-22T14:50:03.535Z,58.47
2019-05-22T14:52:32.673Z,59.40
2019-05-22T14:55:01.657Z,58.32
2019-05-22T14:57:30.174Z,57.74
2019-05-22T14:59:58.989Z,61.33
2019-05-22T15:02:28.101Z,62.41
2019-05-22T15:04:57.444Z,58.39
2019-05-22T15:07:25.996Z,61.07
2019-05-22T15:09:54.420Z,56.25
2019-05-22T15:12:22.870Z,59.27
2019-05-22T15:14:51.323Z,59.84
2019-05-22T15:17:31.869Z,57.10
2019-05-22T15:19:50.840Z,60.22
2019-05-22T15:22:19.741Z,60.57
2019-05-22T15:24:48.194Z,60.40
2019-05-22T15:27:16.587Z,59.22
2019-05-22T15:29:44.968Z,57.90
2019-05-22T15:32:13.869Z,59.24
2019-05-22T15:34:43.260Z,60.11
2019-05-22T15:37:13.563Z,58.89
2019-05-22T15:39:43.424Z,59.95
2019-05-22T15:42:15.605Z,59.42
2019-05-22T15:44:44.824Z,58.77
2019-05-22T15:47:13.612Z,57.54
2019-05-22T15:49:44.302Z,57.15
2019-05-22T15:52:16.207Z,58.72
2019-05-22T15:54:46.059Z,57.37
2019-05-22T15:57:17.799Z,59.82
2019-05-22T15:59:48.703Z,58.12
2019-05-22T16:02:21.752Z,56.89
2019-05-22T16:04:50.727Z,56.11
2019-05-22T16:07:19.130Z,59.75
2019-05-22T16:09:50.797Z,59.15
2019-05-22T16:12:19.635Z,56.97
2019-05-22T16:14:50.206Z,58.53
2019-05-22T16:17:19.211Z,59.26
2019-05-22T16:19:48.840Z,60.82
2019-05-22T16:22:17.474Z,59.03
2019-05-22T16:24:46.017Z,53.50
2019-05-22T16:27:16.258Z,59.53
2019-05-22T16:29:45.106Z,59.67
2019-05-22T16:32:16.652Z,59.79
2019-05-22T16:34:45.374Z,61.45
2019-05-22T16:37:14.137Z,58.92
2019-05-22T16:39:42.601Z,59.60
2019-05-22T16:42:11.643Z,60.68
2019-05-22T16:44:40.423Z,59.21
2019-05-22T16:47:11.169Z,60.26
2019-05-22T16:49:39.984Z,61.55
2019-05-22T16:52:10.650Z,61.56
2019-05-22T16:54:41.243Z,62.97
2019-05-22T16:57:11.580Z,61.22
2019-05-22T16:59:40.875Z,61.60
2019-05-22T17:02:11.997Z,62.60
2019-05-22T17:04:40.903Z,61.84
2019-05-22T17:07:09.361Z,62.39
2019-05-22T17:09:39.712Z,62.43
2019-05-22T17:12:11.341Z,62.02
2019-05-22T17:14:41.327Z,62.43
2019-05-22T17:17:11.530Z,61.90
2019-05-22T17:19:40.181Z,60.65
2019-05-22T17:22:09.585Z,62.82
2019-05-22T17:24:38.238Z,63.98
2019-05-22T17:27:08.054Z,62.24
2019-05-22T17:29:36.838Z,63.87
2019-05-22T17:32:06.533Z,64.11
2019-05-22T17:34:37.468Z,64.42
2019-05-22T17:37:13.515Z,65.51
2019-05-22T17:39:45.410Z,65.20
2019-05-22T17:42:19.965Z,65.89
2019-05-22T17:44:50.651Z,67.57
2019-05-22T17:47:21.751Z,65.44
2019-05-22T17:49:50.910Z,65.03
2019-05-22T17:52:21.125Z,65.85
2019-05-22T17:54:52.039Z,66.17
2019-05-22T17:57:22.593Z,67.13
2019-05-22T17:59:53.158Z,66.80
2019-05-22T18:02:23.858Z,68.28
2019-05-22T18:04:52.538Z,67.45
2019-05-22T18:07:22.248Z,67.01
2019-05-22T18:09:50.718Z,67.40
2019-05-22T18:12:19.951Z,68.37
2019-05-22T18:14:48.914Z,69.28
2019-05-22T18:17:17.745Z,69.71
2019-05-22T18:19:46.891Z,71.18
2019-05-22T18:22:15.799Z,72.18
2019-05-22T18:24:44.968Z,72.80
2019-05-22T18:27:13.686Z,73.39
2019-05-22T18:29:42.378Z,73.33
2019-05-22T18:32:11.676Z,75.27
2019-05-22T18:34:40.467Z,77.05
2019-05-22T18:37:08.848Z,78.73
2019-05-22T18:39:37.745Z,76.84
2019-05-22T18:42:06.063Z,77.27
2019-05-22T18:44:34.821Z,77.26
2019-05-22T18:47:05.238Z,77.72
2019-05-22T18:49:33.633Z,77.91
2019-05-22T18:52:02.299Z,78.36
2019-05-22T18:54:30.812Z,78.84
2019-05-22T18:56:59.547Z,80.99
2019-05-22T18:59:27.974Z,81.45
2019-05-22T19:01:56.947Z,81.61
2019-05-22T19:04:25.387Z,82.54
2019-05-22T19:06:56.018Z,82.09
2019-05-22T19:09:24.946Z,83.27
2019-05-22T19:11:53.634Z,82.96
2019-05-22T19:14:22.220Z,82.83
2019-05-22T19:16:51.004Z,83.06
2019-05-22T19:19:20.013Z,81.95
2019-05-22T19:21:48.450Z,82.19
2019-05-22T19:24:16.991Z,82.20
2019-05-22T19:26:45.914Z,83.89
2019-05-22T19:29:14.563Z,83.63
2019-05-22T19:31:42.970Z,83.70
2019-05-22T19:34:12.212Z,84.08
2019-05-22T19:36:40.584Z,84.25
2019-05-22T19:39:09.696Z,85.33
2019-05-22T19:41:38.158Z,84.40
2019-05-22T19:44:07.622Z,84.31
2019-05-22T19:46:36.290Z,85.13
2019-05-22T19:49:05.726Z,85.70
2019-05-22T19:51:34.691Z,85.76
2019-05-22T19:54:04.324Z,85.35
2019-05-22T19:56:33.681Z,85.67
2019-05-22T19:59:02.775Z,86.03
2019-05-22T20:01:33.038Z,86.05
2019-05-22T20:04:02.307Z,86.43
2019-05-22T20:06:30.886Z,86.57
2019-05-22T20:08:59.298Z,86.58
2019-05-22T20:11:27.823Z,86.60
2019-05-22T20:13:56.668Z,86.27
2019-05-22T20:16:25.142Z,86.16
2019-05-22T20:18:54.033Z,86.25
2019-05-22T20:21:22.703Z,87.05
2019-05-22T20:23:51.373Z,87.25
2019-05-22T20:26:20.942Z,87.64
2019-05-22T20:28:49.666Z,88.03
2019-05-22T20:31:18.139Z,87.99
2019-05-22T20:33:46.794Z,87.93
2019-05-22T20:36:16.455Z,88.14
2019-05-22T20:38:45.301Z,88.35
2019-05-22T20:41:13.714Z,88.73
2019-05-22T20:43:43.873Z,88.72
2019-05-22T20:46:15.112Z,89.10
2019-05-22T20:48:43.560Z,89.06
2019-05-22T20:51:19.217Z,88.94
2019-05-22T20:53:54.308Z,88.83
2019-05-22T20:56:21.126Z,88.90
2019-05-22T20:58:50.082Z,88.50
2019-05-22T21:01:18.961Z,88.49
2019-05-22T21:03:47.343Z,88.38
2019-05-22T21:06:18.318Z,89.12
2019-05-22T21:08:47.284Z,89.18
2019-05-22T21:11:17.587Z,89.11
2019-05-22T21:13:46.309Z,89.14
2019-05-22T21:16:16.944Z,89.38
2019-05-22T21:18:50.003Z,89.82
2019-05-22T21:21:20.435Z,89.99
2019-05-22T21:23:49.156Z,89.93
2019-05-22T21:26:18.829Z,89.92
2019-05-22T21:28:48.679Z,90.13
2019-05-22T21:31:18.250Z,90.34
2019-05-22T21:33:46.979Z,90.46
2019-05-22T21:36:16.573Z,90.62
2019-05-22T21:38:46.402Z,91.00
2019-05-22T21:41:14.795Z,91.29
2019-05-22T21:43:43.178Z,91.59
2019-05-22T21:46:12.282Z,91.93
2019-05-22T21:48:41.509Z,91.82
2019-05-22T21:51:10.559Z,91.80
2019-05-22T21:53:39.528Z,91.92
2019-05-22T21:56:09.240Z,92.11
2019-05-22T21:58:38.440Z,92.37
2019-05-22T22:01:10.365Z,92.60
2019-05-22T22:03:40.473Z,92.60
2019-05-22T22:06:09.770Z,92.73
2019-05-22T22:08:38.152Z,93.23
2019-05-22T22:11:08.196Z,93.31
2019-05-22T22:13:39.340Z,93.78
2019-05-22T22:16:08.587Z,93.84
2019-05-22T22:18:38.994Z,93.91
2019-05-22T22:21:08.074Z,94.04
2019-05-22T22:23:37.327Z,94.17
2019-05-22T22:26:24.180Z,94.19
2019-05-22T22:28:38.263Z,94.44
2019-05-22T22:31:11.383Z,94.39
2019-05-22T22:33:42.260Z,94.39
2019-05-22T22:36:11.202Z,94.43
2019-05-22T22:38:40.178Z,94.61
2019-05-22T22:41:09.895Z,94.68
2019-05-22T22:43:39.522Z,94.65
2019-05-22T22:46:12.643Z,94.61
2019-05-22T22:48:43.296Z,94.60
2019-05-22T22:51:13.028Z,94.54
2019-05-22T22:53:44.466Z,94.50
2019-05-22T22:56:14.103Z,94.55
2019-05-22T22:58:42.791Z,94.63
2019-05-22T23:01:15.208Z,94.62
2019-05-22T23:03:47.379Z,94.80
2019-05-22T23:06:17.319Z,94.84
2019-05-22T23:08:47.260Z,94.83
2019-05-22T23:11:17.058Z,94.83
2019-05-22T23:13:46.300Z,94.89
2019-05-22T23:16:16.059Z,94.96
2019-05-22T23:19:04.360Z,94.88
2019-05-22T23:21:33.486Z,94.96
2019-05-22T23:24:00.737Z,95.10
2019-05-22T23:26:30.095Z,95.07
2019-05-22T23:28:59.289Z,94.87
2019-05-22T23:31:29.251Z,95.03
2019-05-22T23:33:59.195Z,95.42
2019-05-22T23:36:28.528Z,95.21
2019-05-22T23:38:59.512Z,95.21
2019-05-22T23:41:30.640Z,95.24
2019-05-22T23:43:59.800Z,95.30
2019-05-22T23:46:29.135Z,95.37
2019-05-22T23:48:59.343Z,95.41
2019-05-22T23:51:28.697Z,95.25
2019-05-22T23:53:58.271Z,95.24
2019-05-22T23:56:27.765Z,95.26
2019-05-22T23:58:58.479Z,95.30
